createdAt,value
2022-11-05T00:00:35.071Z,92427.78
2022-11-05T00:03:20.062Z,92432.53
2022-11-05T00:06:08.056Z,92436.19
2022-11-05T00:08:53.359Z,92435.69
2022-11-05T00:11:39.915Z,92435.91
2022-11-05T00:14:24.909Z,92432.56
2022-11-05T00:16:51.340Z,92437.28
2022-11-05T00:19:17.784Z,92442.75
2022-11-05T00:22:02.508Z,92443.75
2022-11-05T00:24:47.299Z,92440.25
2022-11-05T00:27:13.736Z,92446.44
2022-11-05T00:29:40.195Z,92448.25
2022-11-05T00:32:06.699Z,92440.19
2022-11-05T00:34:33.265Z,92450.31
2022-11-05T00:36:59.700Z,92451.13
2022-11-05T00:39:26.229Z,92452.06
2022-11-05T00:42:11.058Z,92455.72
2022-11-05T00:44:56.007Z,92461.44
2022-11-05T00:47:40.849Z,92451.00
2022-11-05T00:50:07.642Z,92456.53
2022-11-05T00:52:52.432Z,92453.19
2022-11-05T00:55:18.944Z,92466.69
2022-11-05T00:57:45.404Z,92466.16
2022-11-05T01:00:12.559Z,92465.13
2022-11-05T01:02:39.186Z,92465.06
2022-11-05T01:05:06.216Z,92467.91
2022-11-05T01:07:32.667Z,92476.50
2022-11-05T01:09:59.140Z,92477.28
2022-11-05T01:12:25.559Z,92478.84
2022-11-05T01:14:52.017Z,92479.66
2022-11-05T01:17:18.466Z,92475.50
2022-11-05T01:19:44.929Z,92483.56
2022-11-05T01:22:12.605Z,92488.34
2022-11-05T01:24:39.126Z,92489.66
2022-11-05T01:27:05.559Z,92488.38
2022-11-05T01:29:32.055Z,92494.16
2022-11-05T01:31:58.529Z,92496.81
2022-11-05T01:34:24.982Z,92489.84
2022-11-05T01:36:51.425Z,92497.94
2022-11-05T01:39:17.878Z,92499.00
2022-11-05T01:41:44.391Z,92504.47
2022-11-05T01:44:49.204Z,92499.88
2022-11-05T01:47:33.866Z,92508.47
2022-11-05T01:50:04.115Z,92503.91
2022-11-05T01:52:34.940Z,92510.19
2022-11-05T01:55:02.894Z,92512.56
2022-11-05T01:57:30.683Z,92516.44
2022-11-05T01:59:59.725Z,92511.69
2022-11-05T02:02:26.829Z,92507.06
2022-11-05T02:04:59.080Z,92511.88
2022-11-05T02:07:27.635Z,92503.56
2022-11-05T02:10:15.631Z,92502.16
2022-11-05T02:12:44.828Z,92505.44
2022-11-05T02:15:13.141Z,92507.44
2022-11-05T02:18:01.119Z,92507.38
2022-11-05T02:20:41.587Z,92506.72
2022-11-05T02:23:40.133Z,92501.84
2022-11-05T02:26:28.396Z,92513.63
2022-11-05T02:29:22.181Z,92506.41
2022-11-05T02:31:59.421Z,92513.81
2022-11-05T02:34:53.889Z,92507.84
2022-11-05T02:37:41.402Z,92511.75
2022-11-05T02:40:20.630Z,92498.69
2022-11-05T02:43:16.170Z,92513.56
2022-11-05T02:45:48.870Z,92507.84
2022-11-05T02:48:47.557Z,92506.72
2022-11-05T02:51:28.456Z,92514.69
2022-11-05T02:54:19.687Z,92515.94
2022-11-05T02:56:49.982Z,92518.50
2022-11-05T02:59:16.439Z,92520.56
2022-11-05T03:01:45.559Z,92518.97
2022-11-05T03:04:14.666Z,92517.09
2022-11-05T03:06:53.108Z,92521.88
2022-11-05T03:09:57.326Z,92521.09
2022-11-05T03:12:30.306Z,92530.34
2022-11-05T03:15:27.336Z,92528.50
2022-11-05T03:18:26.839Z,92541.06
2022-11-05T03:21:11.930Z,92538.53
2022-11-05T03:23:47.988Z,92543.44
2022-11-05T03:26:23.485Z,92535.19
2022-11-05T03:29:03.350Z,92541.19
2022-11-05T03:31:31.180Z,92538.09
2022-11-05T03:33:59.865Z,92548.84
2022-11-05T03:36:31.409Z,92553.34
2022-11-05T03:39:02.854Z,92562.25
2022-11-05T03:41:29.545Z,92567.16
2022-11-05T03:43:59.273Z,92566.78
2022-11-05T03:46:30.308Z,92564.00
2022-11-05T03:49:01.682Z,92573.19
2022-11-05T03:56:04.019Z,92586.41
2022-11-05T03:58:31.952Z,92583.81
2022-11-05T04:01:02.511Z,92582.41
2022-11-05T04:03:36.016Z,92581.69
2022-11-05T04:06:23.491Z,92582.66
2022-11-05T04:09:08.256Z,92577.84
2022-11-05T04:11:53.175Z,92583.69
2022-11-05T04:14:19.784Z,92591.97
2022-11-05T04:17:04.858Z,92586.31
2022-11-05T04:19:49.810Z,92587.88
2022-11-05T04:22:34.542Z,92595.06
2022-11-05T04:25:00.945Z,92586.94
2022-11-05T04:27:27.377Z,92594.47
2022-11-05T04:30:12.411Z,92602.34
2022-11-05T04:32:38.844Z,92604.63
2022-11-05T04:35:05.634Z,92610.72
2022-11-05T04:37:32.075Z,92613.22
2022-11-05T04:39:58.552Z,92607.44
2022-11-05T04:42:24.936Z,92620.88
2022-11-05T04:44:51.369Z,92623.88
2022-11-05T04:47:17.801Z,92628.78
2022-11-05T04:49:44.201Z,92622.22
2022-11-05T04:52:10.590Z,92627.28
2022-11-05T04:54:36.989Z,92630.34
2022-11-05T04:57:03.507Z,92635.88
2022-11-05T04:59:29.900Z,92643.94
2022-11-05T05:01:56.333Z,92650.53
2022-11-05T05:04:22.766Z,92645.72
2022-11-05T05:06:49.158Z,92647.38
2022-11-05T05:09:15.668Z,92646.50
2022-11-05T05:11:42.101Z,92666.63
2022-11-05T05:14:08.835Z,92659.84
2022-11-05T05:16:35.267Z,92669.47
2022-11-05T05:19:01.808Z,92667.78
2022-11-05T05:21:40.446Z,92669.22
2022-11-05T05:24:13.423Z,92668.81
2022-11-05T05:26:43.289Z,92680.88
2022-11-05T05:29:10.777Z,92690.78
2022-11-05T05:31:37.614Z,92680.03
2022-11-05T05:34:05.321Z,92681.97
2022-11-05T05:36:31.960Z,92684.81
2022-11-05T05:38:58.434Z,92684.13
2022-11-05T05:41:25.227Z,92681.78
2022-11-05T05:43:51.672Z,92677.59
2022-11-05T05:46:19.301Z,92681.88
2022-11-05T05:48:50.379Z,92677.78
2022-11-05T05:51:17.899Z,92677.78
2022-11-05T05:53:44.792Z,92671.88
2022-11-05T05:56:14.717Z,92685.91
2022-11-05T05:58:41.380Z,92687.56
2022-11-05T06:01:18.860Z,92691.13
2022-11-05T06:03:47.120Z,92697.69
2022-11-05T06:06:14.809Z,92696.38
2022-11-05T06:08:42.137Z,92704.28
2022-11-05T06:11:08.683Z,92710.06
2022-11-05T06:13:35.894Z,92708.69
2022-11-05T06:16:04.970Z,92707.88
2022-11-05T06:18:32.731Z,92710.50
2022-11-05T06:21:04.392Z,92714.34
2022-11-05T06:23:35.073Z,92710.50
2022-11-05T06:26:03.025Z,92711.63
2022-11-05T06:28:29.703Z,92706.88
2022-11-05T06:30:57.470Z,92713.19
2022-11-05T06:33:24.231Z,92719.97
2022-11-05T06:35:50.909Z,92730.97
2022-11-05T06:38:17.319Z,92727.81
2022-11-05T06:40:43.794Z,92729.41
2022-11-05T06:43:10.575Z,92739.03
2022-11-05T06:45:37.160Z,92745.44
2022-11-05T06:48:03.742Z,92744.44
2022-11-05T06:50:30.183Z,92749.06
2022-11-05T06:52:58.234Z,92753.06
2022-11-05T06:55:26.973Z,92758.47
2022-11-05T06:57:53.823Z,92760.31
2022-11-05T07:00:20.413Z,92765.84
2022-11-05T07:02:47.011Z,92757.78
2022-11-05T07:05:14.871Z,92760.06
2022-11-05T07:07:45.495Z,92771.16
2022-11-05T07:10:16.034Z,92782.63
2022-11-05T07:12:42.992Z,92790.31
2022-11-05T07:15:11.424Z,92791.22
2022-11-05T07:17:38.335Z,92788.41
2022-11-05T07:20:05.906Z,92796.31
2022-11-05T07:22:33.615Z,92797.13
2022-11-05T07:25:00.137Z,92792.03
2022-11-05T07:27:26.742Z,92802.75
2022-11-05T07:29:53.200Z,92808.56
2022-11-05T07:32:19.575Z,92808.66
2022-11-05T07:34:46.040Z,92819.66
2022-11-05T07:37:12.465Z,92819.97
2022-11-05T07:39:38.885Z,92826.56
2022-11-05T07:42:05.301Z,92831.44
2022-11-05T07:44:33.556Z,92831.22
2022-11-05T07:46:59.971Z,92838.00
2022-11-05T07:49:26.407Z,92845.38
2022-11-05T07:51:53.549Z,92841.63
2022-11-05T07:54:19.968Z,92843.69
2022-11-05T07:56:47.722Z,92840.72
2022-11-05T07:59:14.159Z,92841.50
2022-11-05T08:01:40.789Z,92859.09
2022-11-05T08:04:07.377Z,92848.53
2022-11-05T08:06:33.815Z,92854.88
2022-11-05T08:09:00.255Z,92853.97
2022-11-05T08:11:26.692Z,92857.34
2022-11-05T08:13:53.130Z,92856.94
2022-11-05T08:16:19.568Z,92860.28
2022-11-05T08:18:46.894Z,92855.78
2022-11-05T08:21:13.286Z,92857.13
2022-11-05T08:23:39.682Z,92872.75
2022-11-05T08:26:06.129Z,92870.38
2022-11-05T08:28:32.562Z,92872.69
2022-11-05T08:30:59.077Z,92873.69
2022-11-05T08:33:25.974Z,92878.66
2022-11-05T08:35:52.414Z,92889.34
2022-11-05T08:38:19.631Z,92886.47
2022-11-05T08:40:55.015Z,92886.28
2022-11-05T08:43:22.060Z,92887.97
2022-11-05T08:45:48.555Z,92894.75
2022-11-05T08:48:18.017Z,92887.97
2022-11-05T08:50:46.813Z,92903.28
2022-11-05T08:53:14.178Z,92894.63
2022-11-05T08:55:41.118Z,92885.09
2022-11-05T08:58:12.497Z,92897.47
2022-11-05T09:00:39.750Z,92902.88
2022-11-05T09:03:08.832Z,92896.09
2022-11-05T09:05:40.097Z,92898.06
2022-11-05T09:08:12.246Z,92901.38
2022-11-05T09:10:39.700Z,92902.06
2022-11-05T09:13:06.454Z,92902.28
2022-11-05T09:15:33.750Z,92906.78
2022-11-05T09:18:00.194Z,92904.13
2022-11-05T09:20:26.637Z,92903.88
2022-11-05T09:22:53.319Z,92902.84
2022-11-05T09:25:19.788Z,92907.78
2022-11-05T09:27:46.190Z,92905.84
2022-11-05T09:30:13.720Z,92911.22
2022-11-05T09:32:40.431Z,92915.25
2022-11-05T09:35:07.691Z,92906.41
2022-11-05T09:37:34.836Z,92912.66
2022-11-05T09:40:01.339Z,92921.38
2022-11-05T09:42:52.308Z,92926.41
2022-11-05T09:45:22.133Z,92931.31
2022-11-05T09:48:16.614Z,92936.19
2022-11-05T09:50:45.392Z,92938.53
2022-11-05T09:53:17.537Z,92942.72
2022-11-05T09:55:48.695Z,92940.88
2022-11-05T09:58:28.566Z,92947.44
2022-11-05T10:00:56.991Z,92952.41
2022-11-05T10:03:26.237Z,92953.38
2022-11-05T10:05:54.473Z,92959.53
2022-11-05T10:08:28.842Z,92964.16
2022-11-05T10:11:01.462Z,92957.34
2022-11-05T10:13:43.376Z,92970.38
2022-11-05T10:16:40.998Z,92964.97
2022-11-05T10:19:22.042Z,92969.78
2022-11-05T10:24:35.233Z,92969.91
2022-11-05T10:27:02.084Z,92975.69
2022-11-05T10:29:34.291Z,92974.31
2022-11-05T10:32:05.473Z,92980.78
2022-11-05T10:34:35.935Z,92978.47
2022-11-05T10:37:02.411Z,92983.91
2022-11-05T10:39:31.222Z,92976.34
2022-11-05T10:42:30.239Z,92982.81
2022-11-05T10:45:18.702Z,92983.22
2022-11-05T10:48:12.785Z,92981.66
2022-11-05T10:50:39.909Z,92981.84
2022-11-05T10:53:22.208Z,92975.59
2022-11-05T10:55:51.071Z,92978.19
2022-11-05T10:58:30.931Z,92988.72
2022-11-05T11:00:57.328Z,92987.19
2022-11-05T11:03:42.315Z,92990.38
2022-11-05T11:06:24.168Z,92991.34
2022-11-05T11:08:52.541Z,92993.03
2022-11-05T11:11:27.460Z,92989.63
2022-11-05T11:13:56.819Z,92996.00
2022-11-05T11:16:28.774Z,93000.69
2022-11-05T11:19:00.919Z,92991.94
2022-11-05T11:21:29.796Z,93004.56
2022-11-05T11:24:06.478Z,93008.66
2022-11-05T11:26:38.246Z,93007.88
2022-11-05T11:29:04.597Z,93004.59
2022-11-05T11:31:33.164Z,93007.03
2022-11-05T11:34:04.132Z,93000.69
2022-11-05T11:36:45.241Z,93001.81
2022-11-05T11:39:19.941Z,92999.31
2022-11-05T11:41:51.604Z,93006.13
2022-11-05T11:44:23.111Z,92993.31
2022-11-05T11:46:52.185Z,93001.00
2022-11-05T11:49:42.000Z,93004.97
2022-11-05T11:52:15.599Z,93000.44
2022-11-05T11:54:42.202Z,93003.16
2022-11-05T11:57:24.204Z,93002.25
2022-11-05T12:00:08.167Z,93004.28
2022-11-05T12:03:18.169Z,93004.53
2022-11-05T12:05:50.778Z,93003.50
2022-11-05T12:08:29.490Z,93004.69
2022-11-05T12:11:34.470Z,93007.41
2022-11-05T12:14:34.620Z,93003.53
2022-11-05T12:17:25.490Z,92992.22
2022-11-05T12:20:33.860Z,93000.47
2022-11-05T12:23:21.854Z,92996.69
2022-11-05T12:26:22.179Z,93000.50
2022-11-05T12:29:35.523Z,93003.81
2022-11-05T12:32:22.218Z,92996.03
2022-11-05T12:35:18.094Z,92998.88
2022-11-05T12:38:10.920Z,92991.13
2022-11-05T12:40:42.847Z,92994.91
2022-11-05T12:43:31.020Z,92997.94
2022-11-05T12:46:06.476Z,92992.06
2022-11-05T12:48:59.526Z,92998.63
2022-11-05T12:51:53.816Z,92995.25
2022-11-05T12:54:45.048Z,93000.47
2022-11-05T12:57:13.835Z,93005.22
2022-11-05T12:59:43.942Z,92996.16
2022-11-05T13:02:13.238Z,93000.47
2022-11-05T13:04:51.454Z,93001.03
2022-11-05T13:07:24.159Z,92996.84
2022-11-05T13:10:05.903Z,92991.59
2022-11-05T13:12:37.388Z,93000.78
2022-11-05T13:15:16.011Z,93003.59
2022-11-05T13:17:58.389Z,93004.13
2022-11-05T13:20:28.937Z,92996.25
2022-11-05T13:23:03.971Z,92992.16
2022-11-05T13:25:37.660Z,92984.22
2022-11-05T13:28:31.755Z,92984.28
2022-11-05T13:31:01.675Z,92987.06
2022-11-05T13:33:44.389Z,92980.97
2022-11-05T13:36:38.866Z,92986.41
2022-11-05T13:39:11.563Z,92988.13
2022-11-05T13:42:04.841Z,92991.47
2022-11-05T13:44:52.706Z,92993.28
2022-11-05T13:47:54.416Z,92993.28
2022-11-05T13:50:45.221Z,92996.59
2022-11-05T13:53:59.681Z,92999.03
2022-11-05T13:56:49.052Z,92996.94
2022-11-05T14:00:04.215Z,92999.75
2022-11-05T14:02:51.771Z,92989.53
2022-11-05T14:05:39.890Z,92992.69
2022-11-05T14:08:26.718Z,92992.16
2022-11-05T14:11:02.258Z,92988.59
2022-11-05T14:13:39.028Z,92990.41
2022-11-05T14:16:09.572Z,93001.63
2022-11-05T14:19:19.641Z,93001.28
2022-11-05T14:21:51.498Z,93005.84
2022-11-05T14:24:22.688Z,93008.88
2022-11-05T14:27:00.977Z,93008.88
2022-11-05T14:29:42.449Z,93012.47
2022-11-05T14:32:18.548Z,92997.94
2022-11-05T14:34:47.037Z,92994.19
2022-11-05T14:37:13.382Z,93001.69
2022-11-05T14:39:41.148Z,92996.72
2022-11-05T14:42:15.106Z,92994.09
2022-11-05T14:45:01.091Z,92993.59
2022-11-05T14:47:41.544Z,92990.31
2022-11-05T14:50:17.226Z,92998.16
2022-11-05T14:52:52.423Z,93000.41
2022-11-05T14:55:37.705Z,92998.66
2022-11-05T14:58:25.682Z,93001.97
2022-11-05T15:00:52.827Z,93012.94
2022-11-05T15:04:02.705Z,93000.88
2022-11-05T15:06:36.652Z,93005.94
2022-11-05T15:09:03.288Z,93011.38
2022-11-05T15:11:32.905Z,93027.31
2022-11-05T15:14:18.264Z,93025.19
2022-11-05T15:16:51.877Z,93017.41
2022-11-05T15:19:30.803Z,93011.03
2022-11-05T15:22:01.003Z,93013.69
2022-11-05T15:24:28.255Z,93017.81
2022-11-05T15:26:58.603Z,93017.06
2022-11-05T15:29:28.416Z,93009.53
2022-11-05T15:31:56.396Z,93014.84
2022-11-05T15:34:33.364Z,93020.25
2022-11-05T15:37:03.080Z,93018.97
2022-11-05T15:39:38.436Z,93019.31
2022-11-05T15:42:13.642Z,93018.31
2022-11-05T15:44:45.618Z,93020.84
2022-11-05T15:47:16.776Z,93015.44
2022-11-05T15:49:46.253Z,93017.13
2022-11-05T15:52:15.059Z,93015.69
2022-11-05T15:54:42.419Z,93011.69
2022-11-05T15:57:23.914Z,93011.69
2022-11-05T15:59:50.847Z,93009.31
2022-11-05T16:02:23.187Z,93011.03
2022-11-05T16:04:51.052Z,93010.38
2022-11-05T16:07:18.546Z,93013.38
2022-11-05T16:09:57.799Z,93013.28
2022-11-05T16:12:32.020Z,93014.22
2022-11-05T16:15:04.269Z,93020.13
2022-11-05T16:17:48.031Z,93024.94
2022-11-05T16:20:35.118Z,93019.53
2022-11-05T16:23:07.156Z,93027.47
2022-11-05T16:25:42.425Z,93033.06
2022-11-05T16:28:30.159Z,93041.44
2022-11-05T16:31:05.307Z,93043.97
2022-11-05T16:33:44.703Z,93053.75
2022-11-05T16:36:11.882Z,93053.38
2022-11-05T16:38:38.616Z,93051.13
2022-11-05T16:41:05.480Z,93055.09
2022-11-05T16:43:34.751Z,93050.22
2022-11-05T16:46:01.848Z,93066.44
2022-11-05T16:48:28.383Z,93056.84
2022-11-05T16:50:54.921Z,93058.78
2022-11-05T16:53:21.739Z,93058.53
2022-11-05T16:55:48.880Z,93063.41
2022-11-05T16:58:20.791Z,93058.09
2022-11-05T17:00:49.653Z,93058.50
2022-11-05T17:03:16.389Z,93060.75
2022-11-05T17:05:43.408Z,93064.19
2022-11-05T17:08:10.261Z,93059.44
2022-11-05T17:10:37.032Z,93073.69
2022-11-05T17:13:03.633Z,93066.75
2022-11-05T17:15:35.502Z,93064.81
2022-11-05T17:18:03.822Z,93075.53
2022-11-05T17:20:40.672Z,93075.25
2022-11-05T17:23:13.767Z,93081.09
2022-11-05T17:25:42.169Z,93079.75
2022-11-05T17:28:09.450Z,93085.97
2022-11-05T17:30:38.610Z,93079.44
2022-11-05T17:33:07.029Z,93090.94
2022-11-05T17:35:33.709Z,93083.38
2022-11-05T17:38:00.445Z,93084.38
2022-11-05T17:40:28.408Z,93096.56
2022-11-05T17:42:55.063Z,93098.03
2022-11-05T17:45:21.691Z,93098.66
2022-11-05T17:47:48.271Z,93100.41
2022-11-05T17:50:15.996Z,93108.03
2022-11-05T17:52:43.181Z,93106.63
2022-11-05T17:55:16.369Z,93113.03
2022-11-05T17:57:50.771Z,93108.53
2022-11-05T18:00:21.204Z,93114.53
2022-11-05T18:02:49.609Z,93117.25
2022-11-05T18:05:21.618Z,93121.72
2022-11-05T18:07:49.183Z,93129.66
2022-11-05T18:10:16.531Z,93117.69
2022-11-05T18:12:44.024Z,93125.47
2022-11-05T18:15:11.555Z,93115.06
2022-11-05T18:17:38.248Z,93121.28
2022-11-05T18:20:11.704Z,93112.97
2022-11-05T18:22:41.577Z,93111.13
2022-11-05T18:25:09.674Z,93115.94
2022-11-05T18:27:36.722Z,93128.34
2022-11-05T18:30:04.201Z,93125.16
2022-11-05T18:32:30.930Z,93126.44
2022-11-05T18:34:57.574Z,93126.00
2022-11-05T18:37:24.645Z,93120.81
2022-11-05T18:39:52.458Z,93117.19
2022-11-05T18:42:20.184Z,93118.78
2022-11-05T18:44:46.901Z,93111.59
2022-11-05T18:47:13.894Z,93104.81
2022-11-05T18:49:40.532Z,93103.28
2022-11-05T18:52:07.028Z,93106.53
2022-11-05T18:54:33.448Z,93104.56
2022-11-05T18:56:59.885Z,93104.97
2022-11-05T18:59:42.221Z,93099.78
2022-11-05T19:02:11.002Z,93098.19
2022-11-05T19:04:37.767Z,93094.59
2022-11-05T19:07:05.889Z,93107.34
2022-11-05T19:09:37.058Z,93100.56
2022-11-05T19:12:05.028Z,93103.59
2022-11-05T19:14:31.519Z,93106.19
2022-11-05T19:16:58.991Z,93117.81
2022-11-05T19:19:25.935Z,93114.88
2022-11-05T19:21:52.611Z,93119.94
2022-11-05T19:24:19.148Z,93112.34
2022-11-05T19:26:46.600Z,93102.91
2022-11-05T19:29:13.090Z,93105.91
2022-11-05T19:31:39.488Z,93101.50
2022-11-05T19:34:05.979Z,93098.53
2022-11-05T19:36:33.276Z,93104.53
2022-11-05T19:39:02.154Z,93101.78
2022-11-05T19:41:29.114Z,93102.03
2022-11-05T19:43:58.120Z,93104.09
2022-11-05T19:46:25.041Z,93109.66
2022-11-05T19:48:51.625Z,93117.84
2022-11-05T19:51:26.525Z,93116.28
2022-11-05T19:53:53.527Z,93124.28
2022-11-05T19:56:21.466Z,93111.75
2022-11-05T19:58:48.886Z,93115.78
2022-11-05T20:01:17.544Z,93111.78
2022-11-05T20:03:44.276Z,93116.00
2022-11-05T20:06:13.545Z,93110.22
2022-11-05T20:08:59.738Z,93110.63
2022-11-05T20:11:27.801Z,93119.63
2022-11-05T20:13:54.229Z,93119.44
2022-11-05T20:16:29.439Z,93121.06
2022-11-05T20:18:57.137Z,93123.88
2022-11-05T20:21:23.650Z,93131.84
2022-11-05T20:23:50.121Z,93130.84
2022-11-05T20:26:16.787Z,93125.66
2022-11-05T20:28:48.092Z,93128.06
2022-11-05T20:31:34.734Z,93126.47
2022-11-05T20:34:01.399Z,93124.69
2022-11-05T20:36:27.947Z,93129.28
2022-11-05T20:38:57.918Z,93126.69
2022-11-05T20:41:25.693Z,93123.69
2022-11-05T20:43:52.159Z,93132.66
2022-11-05T20:46:20.657Z,93131.69
2022-11-05T20:48:47.114Z,93128.69
2022-11-05T20:51:16.088Z,93133.47
2022-11-05T20:53:43.424Z,93121.13
2022-11-05T20:56:22.616Z,93121.13
2022-11-05T20:58:49.520Z,93128.69
2022-11-05T21:01:16.902Z,93117.16
2022-11-05T21:03:47.719Z,93108.97
2022-11-05T21:06:14.848Z,93112.75
2022-11-05T21:08:41.606Z,93128.69
2022-11-05T21:11:09.039Z,93136.25
2022-11-05T21:13:36.090Z,93131.69
2022-11-05T21:16:06.063Z,93144.22
2022-11-05T21:18:34.561Z,93142.81
2022-11-05T21:21:08.634Z,93134.25
2022-11-05T21:23:35.457Z,93141.78
2022-11-05T21:26:10.674Z,93139.22
2022-11-05T21:28:39.162Z,93133.81
2022-11-05T21:31:07.191Z,93139.41
2022-11-05T21:33:34.056Z,93135.41
2022-11-05T21:36:09.497Z,93136.25
2022-11-05T21:38:36.014Z,93133.84
2022-11-05T21:41:03.044Z,93125.88
2022-11-05T21:43:29.827Z,93128.69
2022-11-05T21:45:59.983Z,93122.50
2022-11-05T21:48:26.470Z,93122.50
2022-11-05T21:51:12.289Z,93133.84
2022-11-05T21:53:58.051Z,93124.88
2022-11-05T21:56:45.074Z,93133.25
2022-11-05T21:59:32.331Z,93124.28
2022-11-05T22:02:02.631Z,93119.88
2022-11-05T22:04:36.428Z,93122.66
2022-11-05T22:07:04.075Z,93123.28
2022-11-05T22:09:30.676Z,93125.66
2022-11-05T22:11:57.275Z,93130.03
2022-11-05T22:14:23.947Z,93127.22
2022-11-05T22:16:50.428Z,93119.47
2022-11-05T22:19:17.390Z,93116.25
2022-11-05T22:21:43.898Z,93114.25
2022-11-05T22:24:10.473Z,93111.88
2022-11-05T22:26:38.173Z,93106.06
2022-11-05T22:29:05.382Z,93105.31
2022-11-05T22:31:36.270Z,93106.69
2022-11-05T22:34:04.501Z,93105.84
2022-11-05T22:36:30.924Z,93108.88
2022-11-05T22:38:57.345Z,93103.28
2022-11-05T22:41:23.743Z,93093.16
2022-11-05T22:43:50.205Z,93090.34
2022-11-05T22:46:20.224Z,93090.75
2022-11-05T22:48:47.536Z,93086.75
2022-11-05T22:51:17.655Z,93080.59
2022-11-05T22:53:44.121Z,93074.81
2022-11-05T22:56:13.283Z,93080.38
2022-11-05T22:58:39.813Z,93086.13
2022-11-05T23:01:08.146Z,93091.88
2022-11-05T23:03:34.976Z,93102.03
2022-11-05T23:06:06.067Z,93101.00
2022-11-05T23:08:51.564Z,93095.22
2022-11-05T23:11:38.362Z,93089.28
2022-11-05T23:14:07.130Z,93091.66
2022-11-05T23:16:52.695Z,93086.47
2022-11-05T23:19:37.394Z,93081.91
2022-11-05T23:22:22.820Z,93081.50
2022-11-05T23:24:49.273Z,93074.34
2022-11-05T23:27:15.699Z,93071.97
2022-11-05T23:29:42.159Z,93061.44
2022-11-05T23:32:23.904Z,93059.03
2022-11-05T23:34:55.024Z,93068.00
2022-11-05T23:37:41.952Z,93075.56
2022-11-05T23:40:10.299Z,93070.78
2022-11-05T23:42:55.073Z,93071.97
2022-11-05T23:45:39.974Z,93063.41
2022-11-05T23:48:27.616Z,93040.13
2022-11-05T23:50:59.476Z,93034.97
2022-11-05T23:53:26.892Z,93034.97
2022-11-05T23:55:53.654Z,93041.53
2022-11-05T23:58:20.076Z,93042.72
